sensor_id;sensor_type;location;lat;lon;timestamp;P1;durP1;ratioP1;P2;durP2;ratioP2
56537;SDS011;42435;53.292;6.000;2023-02-18T00:01:44;21.17;;;3.42;;
56537;SDS011;42435;53.292;6.000;2023-02-18T00:04:18;14.30;;;3.03;;
56537;SDS011;42435;53.292;6.000;2023-02-18T00:06:52;10.40;;;2.60;;
56537;SDS011;42435;53.292;6.000;2023-02-18T00:09:18;16.75;;;3.13;;
56537;SDS011;42435;53.292;6.000;2023-02-18T00:11:46;16.10;;;3.58;;
56537;SDS011;42435;53.292;6.000;2023-02-18T00:14:13;21.65;;;3.80;;
56537;SDS011;42435;53.292;6.000;2023-02-18T00:16:40;17.65;;;3.20;;
56537;SDS011;42435;53.292;6.000;2023-02-18T00:19:07;13.07;;;2.65;;
56537;SDS011;42435;53.292;6.000;2023-02-18T00:21:41;19.40;;;3.22;;
56537;SDS011;42435;53.292;6.000;2023-02-18T00:24:08;11.65;;;3.78;;
56537;SDS011;42435;53.292;6.000;2023-02-18T00:26:42;16.93;;;3.27;;
56537;SDS011;42435;53.292;6.000;2023-02-18T00:29:08;12.25;;;2.58;;
56537;SDS011;42435;53.292;6.000;2023-02-18T00:31:40;19.25;;;3.25;;
56537;SDS011;42435;53.292;6.000;2023-02-18T00:34:09;14.68;;;3.28;;
56537;SDS011;42435;53.292;6.000;2023-02-18T00:36:36;15.30;;;3.28;;
56537;SDS011;42435;53.292;6.000;2023-02-18T00:39:02;15.18;;;2.95;;
56537;SDS011;42435;53.292;6.000;2023-02-18T00:41:36;18.70;;;3.03;;
56537;SDS011;42435;53.292;6.000;2023-02-18T00:44:02;17.27;;;3.72;;
56537;SDS011;42435;53.292;6.000;2023-02-18T00:46:28;21.40;;;4.00;;
56537;SDS011;42435;53.292;6.000;2023-02-18T00:48:54;15.90;;;3.60;;
56537;SDS011;42435;53.292;6.000;2023-02-18T00:51:21;16.00;;;3.92;;
56537;SDS011;42435;53.292;6.000;2023-02-18T00:53:46;11.07;;;3.17;;
56537;SDS011;42435;53.292;6.000;2023-02-18T00:56:15;12.45;;;3.63;;
56537;SDS011;42435;53.292;6.000;2023-02-18T00:58:41;15.00;;;3.33;;
56537;SDS011;42435;53.292;6.000;2023-02-18T01:01:13;16.35;;;3.28;;
56537;SDS011;42435;53.292;6.000;2023-02-18T01:03:40;19.58;;;3.90;;
56537;SDS011;42435;53.292;6.000;2023-02-18T01:06:10;14.30;;;3.50;;
56537;SDS011;42435;53.292;6.000;2023-02-18T01:08:36;14.85;;;3.67;;
56537;SDS011;42435;53.292;6.000;2023-02-18T01:11:03;21.48;;;3.92;;
56537;SDS011;42435;53.292;6.000;2023-02-18T01:13:32;21.13;;;4.28;;
56537;SDS011;42435;53.292;6.000;2023-02-18T01:15:58;11.10;;;3.60;;
56537;SDS011;42435;53.292;6.000;2023-02-18T01:18:24;20.75;;;3.67;;
56537;SDS011;42435;53.292;6.000;2023-02-18T01:20:51;17.45;;;3.97;;
56537;SDS011;42435;53.292;6.000;2023-02-18T01:23:19;16.27;;;3.75;;
56537;SDS011;42435;53.292;6.000;2023-02-18T01:25:50;16.73;;;3.97;;
56537;SDS011;42435;53.292;6.000;2023-02-18T01:28:15;15.88;;;4.13;;
56537;SDS011;42435;53.292;6.000;2023-02-18T01:30:41;12.80;;;3.25;;
56537;SDS011;42435;53.292;6.000;2023-02-18T01:33:07;15.55;;;3.45;;
56537;SDS011;42435;53.292;6.000;2023-02-18T01:35:33;18.10;;;4.30;;
56537;SDS011;42435;53.292;6.000;2023-02-18T01:38:05;11.68;;;3.50;;
56537;SDS011;42435;53.292;6.000;2023-02-18T01:40:31;16.13;;;3.92;;
56537;SDS011;42435;53.292;6.000;2023-02-18T01:42:57;13.77;;;3.22;;
56537;SDS011;42435;53.292;6.000;2023-02-18T01:48:17;16.52;;;3.92;;
56537;SDS011;42435;53.292;6.000;2023-02-18T01:50:56;17.05;;;4.03;;
56537;SDS011;42435;53.292;6.000;2023-02-18T01:53:36;20.65;;;3.95;;
56537;SDS011;42435;53.292;6.000;2023-02-18T01:56:12;18.40;;;3.95;;
56537;SDS011;42435;53.292;6.000;2023-02-18T01:58:46;13.38;;;3.58;;
56537;SDS011;42435;53.292;6.000;2023-02-18T02:01:13;12.25;;;3.90;;
56537;SDS011;42435;53.292;6.000;2023-02-18T02:03:42;13.45;;;4.00;;
56537;SDS011;42435;53.292;6.000;2023-02-18T02:06:13;17.17;;;3.47;;
56537;SDS011;42435;53.292;6.000;2023-02-18T02:08:48;19.90;;;4.10;;
56537;SDS011;42435;53.292;6.000;2023-02-18T02:11:22;17.63;;;4.75;;
56537;SDS011;42435;53.292;6.000;2023-02-18T02:16:54;17.08;;;4.47;;
56537;SDS011;42435;53.292;6.000;2023-02-18T02:25:48;12.18;;;3.83;;
56537;SDS011;42435;53.292;6.000;2023-02-18T02:31:31;18.58;;;4.70;;
56537;SDS011;42435;53.292;6.000;2023-02-18T02:34:29;14.80;;;3.47;;
56537;SDS011;42435;53.292;6.000;2023-02-18T02:37:27;12.23;;;2.83;;
56537;SDS011;42435;53.292;6.000;2023-02-18T02:40:15;18.27;;;3.58;;
56537;SDS011;42435;53.292;6.000;2023-02-18T02:43:00;13.93;;;3.60;;
56537;SDS011;42435;53.292;6.000;2023-02-18T02:46:14;20.98;;;3.95;;
56537;SDS011;42435;53.292;6.000;2023-02-18T02:51:55;14.02;;;4.15;;
56537;SDS011;42435;53.292;6.000;2023-02-18T02:54:25;11.13;;;3.60;;
56537;SDS011;42435;53.292;6.000;2023-02-18T02:59:43;10.40;;;4.10;;
56537;SDS011;42435;53.292;6.000;2023-02-18T03:07:37;12.23;;;3.90;;
56537;SDS011;42435;53.292;6.000;2023-02-18T03:13:08;9.52;;;3.58;;
56537;SDS011;42435;53.292;6.000;2023-02-18T03:18:43;17.98;;;4.47;;
56537;SDS011;42435;53.292;6.000;2023-02-18T03:21:24;15.45;;;4.90;;
56537;SDS011;42435;53.292;6.000;2023-02-18T03:24:06;14.33;;;3.67;;
56537;SDS011;42435;53.292;6.000;2023-02-18T03:26:38;12.57;;;4.55;;
56537;SDS011;42435;53.292;6.000;2023-02-18T03:29:12;13.68;;;5.15;;
56537;SDS011;42435;53.292;6.000;2023-02-18T03:31:42;15.20;;;4.32;;
56537;SDS011;42435;53.292;6.000;2023-02-18T03:34:17;10.93;;;3.60;;
56537;SDS011;42435;53.292;6.000;2023-02-18T03:36:50;11.00;;;4.13;;
56537;SDS011;42435;53.292;6.000;2023-02-18T03:39:17;12.55;;;3.97;;
56537;SDS011;42435;53.292;6.000;2023-02-18T03:41:47;10.38;;;3.63;;
56537;SDS011;42435;53.292;6.000;2023-02-18T03:44:17;10.90;;;3.50;;
56537;SDS011;42435;53.292;6.000;2023-02-18T03:46:45;20.27;;;5.00;;
56537;SDS011;42435;53.292;6.000;2023-02-18T03:49:11;13.30;;;3.22;;
56537;SDS011;42435;53.292;6.000;2023-02-18T03:51:38;10.50;;;3.35;;
56537;SDS011;42435;53.292;6.000;2023-02-18T03:54:04;9.95;;;4.30;;
56537;SDS011;42435;53.292;6.000;2023-02-18T03:56:33;10.80;;;3.33;;
56537;SDS011;42435;53.292;6.000;2023-02-18T03:58:59;13.25;;;3.28;;
56537;SDS011;42435;53.292;6.000;2023-02-18T04:01:27;13.23;;;3.28;;
56537;SDS011;42435;53.292;6.000;2023-02-18T04:03:53;17.15;;;3.72;;
56537;SDS011;42435;53.292;6.000;2023-02-18T04:06:20;11.27;;;3.03;;
56537;SDS011;42435;53.292;6.000;2023-02-18T04:08:46;12.88;;;3.60;;
56537;SDS011;42435;53.292;6.000;2023-02-18T04:11:12;8.10;;;2.90;;
56537;SDS011;42435;53.292;6.000;2023-02-18T04:13:38;9.43;;;2.75;;
56537;SDS011;42435;53.292;6.000;2023-02-18T04:16:03;10.60;;;2.85;;
56537;SDS011;42435;53.292;6.000;2023-02-18T04:18:32;8.38;;;3.20;;
56537;SDS011;42435;53.292;6.000;2023-02-18T04:20:58;7.95;;;2.90;;
56537;SDS011;42435;53.292;6.000;2023-02-18T04:23:23;8.88;;;2.58;;
56537;SDS011;42435;53.292;6.000;2023-02-18T04:25:55;11.23;;;3.15;;
56537;SDS011;42435;53.292;6.000;2023-02-18T04:28:20;13.05;;;3.05;;
56537;SDS011;42435;53.292;6.000;2023-02-18T04:30:46;9.77;;;2.67;;
56537;SDS011;42435;53.292;6.000;2023-02-18T04:33:12;9.02;;;3.35;;
56537;SDS011;42435;53.292;6.000;2023-02-18T04:35:38;10.75;;;3.83;;
56537;SDS011;42435;53.292;6.000;2023-02-18T04:38:05;11.40;;;4.75;;
56537;SDS011;42435;53.292;6.000;2023-02-18T04:40:33;12.82;;;4.13;;
56537;SDS011;42435;53.292;6.000;2023-02-18T04:42:59;10.35;;;4.00;;
56537;SDS011;42435;53.292;6.000;2023-02-18T04:45:26;17.30;;;5.22;;
56537;SDS011;42435;53.292;6.000;2023-02-18T04:47:52;15.13;;;4.97;;
56537;SDS011;42435;53.292;6.000;2023-02-18T04:50:28;12.40;;;5.80;;
56537;SDS011;42435;53.292;6.000;2023-02-18T04:52:54;19.58;;;5.60;;
56537;SDS011;42435;53.292;6.000;2023-02-18T04:55:19;16.42;;;6.18;;
56537;SDS011;42435;53.292;6.000;2023-02-18T04:57:45;23.08;;;7.10;;
56537;SDS011;42435;53.292;6.000;2023-02-18T05:00:14;20.80;;;7.38;;
56537;SDS011;42435;53.292;6.000;2023-02-18T05:02:44;28.90;;;9.20;;
56537;SDS011;42435;53.292;6.000;2023-02-18T05:05:18;24.58;;;10.48;;
56537;SDS011;42435;53.292;6.000;2023-02-18T05:07:44;32.55;;;11.70;;
56537;SDS011;42435;53.292;6.000;2023-02-18T05:10:10;29.17;;;12.30;;
56537;SDS011;42435;53.292;6.000;2023-02-18T05:12:42;31.60;;;12.90;;
56537;SDS011;42435;53.292;6.000;2023-02-18T05:15:08;37.45;;;13.93;;
56537;SDS011;42435;53.292;6.000;2023-02-18T05:17:37;31.52;;;14.70;;
56537;SDS011;42435;53.292;6.000;2023-02-18T05:20:06;39.58;;;19.50;;
56537;SDS011;42435;53.292;6.000;2023-02-18T05:22:32;44.50;;;20.30;;
56537;SDS011;42435;53.292;6.000;2023-02-18T05:24:58;41.05;;;20.73;;
56537;SDS011;42435;53.292;6.000;2023-02-18T05:27:23;44.85;;;22.05;;
56537;SDS011;42435;53.292;6.000;2023-02-18T05:29:52;44.95;;;21.95;;
56537;SDS011;42435;53.292;6.000;2023-02-18T05:32:37;42.58;;;21.50;;
56537;SDS011;42435;53.292;6.000;2023-02-18T05:35:11;41.17;;;21.80;;
56537;SDS011;42435;53.292;6.000;2023-02-18T05:37:38;45.67;;;24.10;;
56537;SDS011;42435;53.292;6.000;2023-02-18T05:40:04;41.58;;;21.70;;
56537;SDS011;42435;53.292;6.000;2023-02-18T05:42:30;43.42;;;22.80;;
56537;SDS011;42435;53.292;6.000;2023-02-18T05:44:57;41.97;;;22.95;;
56537;SDS011;42435;53.292;6.000;2023-02-18T05:47:26;41.78;;;23.13;;
56537;SDS011;42435;53.292;6.000;2023-02-18T05:49:54;47.30;;;22.27;;
56537;SDS011;42435;53.292;6.000;2023-02-18T05:52:20;41.90;;;21.88;;
56537;SDS011;42435;53.292;6.000;2023-02-18T05:54:46;58.70;;;25.02;;
56537;SDS011;42435;53.292;6.000;2023-02-18T05:57:20;39.40;;;21.48;;
56537;SDS011;42435;53.292;6.000;2023-02-18T05:59:46;45.72;;;22.80;;
56537;SDS011;42435;53.292;6.000;2023-02-18T06:05:36;45.38;;;21.58;;
56537;SDS011;42435;53.292;6.000;2023-02-18T06:08:02;42.80;;;21.25;;
56537;SDS011;42435;53.292;6.000;2023-02-18T06:10:28;43.08;;;21.70;;
56537;SDS011;42435;53.292;6.000;2023-02-18T06:13:02;42.85;;;20.30;;
56537;SDS011;42435;53.292;6.000;2023-02-18T06:15:30;43.17;;;21.20;;
56537;SDS011;42435;53.292;6.000;2023-02-18T06:17:56;47.67;;;21.05;;
56537;SDS011;42435;53.292;6.000;2023-02-18T06:20:31;42.40;;;20.33;;
56537;SDS011;42435;53.292;6.000;2023-02-18T06:22:57;43.35;;;20.20;;
56537;SDS011;42435;53.292;6.000;2023-02-18T06:25:27;46.28;;;20.85;;
56537;SDS011;42435;53.292;6.000;2023-02-18T06:27:53;41.45;;;19.13;;
56537;SDS011;42435;53.292;6.000;2023-02-18T06:30:26;45.33;;;20.17;;
56537;SDS011;42435;53.292;6.000;2023-02-18T06:32:52;43.75;;;21.50;;
56537;SDS011;42435;53.292;6.000;2023-02-18T06:35:20;47.72;;;20.25;;
56537;SDS011;42435;53.292;6.000;2023-02-18T06:37:45;55.65;;;23.45;;
56537;SDS011;42435;53.292;6.000;2023-02-18T06:40:14;60.72;;;23.52;;
56537;SDS011;42435;53.292;6.000;2023-02-18T06:42:40;49.67;;;20.83;;
56537;SDS011;42435;53.292;6.000;2023-02-18T06:45:18;55.05;;;22.35;;
56537;SDS011;42435;53.292;6.000;2023-02-18T06:51:30;49.35;;;20.52;;
56537;SDS011;42435;53.292;6.000;2023-02-18T06:53:59;48.28;;;20.92;;
56537;SDS011;42435;53.292;6.000;2023-02-18T06:56:25;44.88;;;19.20;;
56537;SDS011;42435;53.292;6.000;2023-02-18T06:58:53;48.47;;;19.95;;
56537;SDS011;42435;53.292;6.000;2023-02-18T07:01:21;34.97;;;17.95;;
56537;SDS011;42435;53.292;6.000;2023-02-18T07:03:47;45.83;;;19.38;;
56537;SDS011;42435;53.292;6.000;2023-02-18T07:06:13;43.20;;;19.60;;
56537;SDS011;42435;53.292;6.000;2023-02-18T07:09:53;42.10;;;18.98;;
56537;SDS011;42435;53.292;6.000;2023-02-18T07:22:55;33.80;;;16.30;;
56537;SDS011;42435;53.292;6.000;2023-02-18T07:33:33;34.20;;;12.73;;
56537;SDS011;42435;53.292;6.000;2023-02-18T07:40:21;30.55;;;12.07;;
56537;SDS011;42435;53.292;6.000;2023-02-18T07:42:50;28.83;;;11.52;;
56537;SDS011;42435;53.292;6.000;2023-02-18T07:45:28;32.85;;;13.15;;
56537;SDS011;42435;53.292;6.000;2023-02-18T08:12:26;25.67;;;8.13;;
56537;SDS011;42435;53.292;6.000;2023-02-18T08:18:54;21.08;;;7.13;;
56537;SDS011;42435;53.292;6.000;2023-02-18T08:45:59;15.40;;;3.65;;
56537;SDS011;42435;53.292;6.000;2023-02-18T08:50:00;20.17;;;4.72;;
56537;SDS011;42435;53.292;6.000;2023-02-18T08:53:15;19.88;;;4.00;;
56537;SDS011;42435;53.292;6.000;2023-02-18T08:59:12;21.08;;;4.28;;
56537;SDS011;42435;53.292;6.000;2023-02-18T09:16:55;15.77;;;3.55;;
56537;SDS011;42435;53.292;6.000;2023-02-18T09:27:33;13.57;;;3.73;;
56537;SDS011;42435;53.292;6.000;2023-02-18T09:30:55;12.98;;;3.35;;
56537;SDS011;42435;53.292;6.000;2023-02-18T09:41:00;18.98;;;3.35;;
56537;SDS011;42435;53.292;6.000;2023-02-18T10:22:38;12.80;;;2.85;;
56537;SDS011;42435;53.292;6.000;2023-02-18T10:29:39;19.40;;;3.65;;
56537;SDS011;42435;53.292;6.000;2023-02-18T10:47:47;20.20;;;4.32;;
56537;SDS011;42435;53.292;6.000;2023-02-18T10:50:41;15.15;;;3.40;;
56537;SDS011;42435;53.292;6.000;2023-02-18T10:55:56;14.70;;;4.70;;
56537;SDS011;42435;53.292;6.000;2023-02-18T10:58:32;20.40;;;3.75;;
56537;SDS011;42435;53.292;6.000;2023-02-18T11:01:11;21.50;;;4.30;;
56537;SDS011;42435;53.292;6.000;2023-02-18T11:06:15;13.95;;;3.65;;
56537;SDS011;42435;53.292;6.000;2023-02-18T11:08:59;21.20;;;3.78;;
56537;SDS011;42435;53.292;6.000;2023-02-18T11:11:33;15.05;;;4.03;;
56537;SDS011;42435;53.292;6.000;2023-02-18T11:14:03;22.30;;;3.75;;
56537;SDS011;42435;53.292;6.000;2023-02-18T11:16:38;13.70;;;3.58;;
56537;SDS011;42435;53.292;6.000;2023-02-18T11:19:18;23.77;;;4.60;;
56537;SDS011;42435;53.292;6.000;2023-02-18T11:24:43;18.98;;;4.22;;
56537;SDS011;42435;53.292;6.000;2023-02-18T11:27:15;14.25;;;3.38;;
56537;SDS011;42435;53.292;6.000;2023-02-18T11:29:46;14.98;;;3.53;;
56537;SDS011;42435;53.292;6.000;2023-02-18T11:32:15;21.58;;;5.05;;
56537;SDS011;42435;53.292;6.000;2023-02-18T11:34:42;15.85;;;3.50;;
56537;SDS011;42435;53.292;6.000;2023-02-18T11:37:10;18.67;;;4.30;;
56537;SDS011;42435;53.292;6.000;2023-02-18T11:39:44;15.05;;;3.83;;
56537;SDS011;42435;53.292;6.000;2023-02-18T11:42:13;20.63;;;4.28;;
56537;SDS011;42435;53.292;6.000;2023-02-18T11:44:42;19.75;;;4.03;;
56537;SDS011;42435;53.292;6.000;2023-02-18T11:47:32;19.08;;;3.92;;
56537;SDS011;42435;53.292;6.000;2023-02-18T11:52:38;18.85;;;4.00;;
56537;SDS011;42435;53.292;6.000;2023-02-18T11:57:54;18.35;;;4.15;;
56537;SDS011;42435;53.292;6.000;2023-02-18T12:00:22;19.63;;;4.40;;
56537;SDS011;42435;53.292;6.000;2023-02-18T12:02:56;16.60;;;3.60;;
56537;SDS011;42435;53.292;6.000;2023-02-18T12:05:24;14.55;;;3.50;;
56537;SDS011;42435;53.292;6.000;2023-02-18T12:07:54;17.58;;;3.88;;
56537;SDS011;42435;53.292;6.000;2023-02-18T12:10:36;16.27;;;4.03;;
56537;SDS011;42435;53.292;6.000;2023-02-18T12:13:19;13.23;;;3.83;;
56537;SDS011;42435;53.292;6.000;2023-02-18T12:16:05;16.02;;;3.72;;
56537;SDS011;42435;53.292;6.000;2023-02-18T12:21:23;14.43;;;3.63;;
56537;SDS011;42435;53.292;6.000;2023-02-18T12:34:57;19.15;;;3.90;;
56537;SDS011;42435;53.292;6.000;2023-02-18T12:43:21;14.65;;;3.60;;
56537;SDS011;42435;53.292;6.000;2023-02-18T12:48:33;17.17;;;3.13;;
56537;SDS011;42435;53.292;6.000;2023-02-18T13:03:16;15.80;;;3.40;;
56537;SDS011;42435;53.292;6.000;2023-02-18T13:08:51;20.38;;;3.72;;
56537;SDS011;42435;53.292;6.000;2023-02-18T13:14:45;15.65;;;4.50;;
56537;SDS011;42435;53.292;6.000;2023-02-18T13:17:21;16.55;;;3.58;;
56537;SDS011;42435;53.292;6.000;2023-02-18T13:19:53;16.83;;;3.17;;
56537;SDS011;42435;53.292;6.000;2023-02-18T13:22:21;21.75;;;4.10;;
56537;SDS011;42435;53.292;6.000;2023-02-18T13:24:49;15.35;;;2.92;;
56537;SDS011;42435;53.292;6.000;2023-02-18T13:35:26;13.80;;;3.35;;
56537;SDS011;42435;53.292;6.000;2023-02-18T13:38:19;19.77;;;4.43;;
56537;SDS011;42435;53.292;6.000;2023-02-18T13:41:05;20.75;;;4.32;;
56537;SDS011;42435;53.292;6.000;2023-02-18T13:43:33;18.00;;;5.10;;
56537;SDS011;42435;53.292;6.000;2023-02-18T13:48:32;23.33;;;4.63;;
56537;SDS011;42435;53.292;6.000;2023-02-18T13:51:04;14.77;;;3.30;;
56537;SDS011;42435;53.292;6.000;2023-02-18T13:53:31;13.48;;;3.35;;
56537;SDS011;42435;53.292;6.000;2023-02-18T13:56:06;18.48;;;4.38;;
56537;SDS011;42435;53.292;6.000;2023-02-18T13:58:51;16.50;;;4.10;;
56537;SDS011;42435;53.292;6.000;2023-02-18T14:03:58;16.98;;;3.72;;
56537;SDS011;42435;53.292;6.000;2023-02-18T14:09:02;16.38;;;4.35;;
56537;SDS011;42435;53.292;6.000;2023-02-18T14:11:55;18.48;;;3.55;;
56537;SDS011;42435;53.292;6.000;2023-02-18T14:14:39;19.42;;;3.42;;
56537;SDS011;42435;53.292;6.000;2023-02-18T14:19:53;15.80;;;3.90;;
56537;SDS011;42435;53.292;6.000;2023-02-18T14:22:26;19.02;;;4.30;;
56537;SDS011;42435;53.292;6.000;2023-02-18T14:25:41;19.63;;;3.63;;
56537;SDS011;42435;53.292;6.000;2023-02-18T14:27:44;23.98;;;5.13;;
56537;SDS011;42435;53.292;6.000;2023-02-18T14:30:18;19.27;;;4.55;;
56537;SDS011;42435;53.292;6.000;2023-02-18T14:32:48;18.73;;;4.22;;
56537;SDS011;42435;53.292;6.000;2023-02-18T14:35:19;16.95;;;3.63;;
56537;SDS011;42435;53.292;6.000;2023-02-18T14:37:57;21.30;;;4.65;;
56537;SDS011;42435;53.292;6.000;2023-02-18T14:43:38;19.27;;;3.97;;
56537;SDS011;42435;53.292;6.000;2023-02-18T14:46:14;22.02;;;3.33;;
56537;SDS011;42435;53.292;6.000;2023-02-18T14:51:09;28.10;;;4.47;;
56537;SDS011;42435;53.292;6.000;2023-02-18T14:53:41;14.98;;;4.00;;
56537;SDS011;42435;53.292;6.000;2023-02-18T14:56:09;24.70;;;4.63;;
56537;SDS011;42435;53.292;6.000;2023-02-18T14:58:40;19.25;;;4.30;;
56537;SDS011;42435;53.292;6.000;2023-02-18T15:03:43;22.23;;;4.00;;
56537;SDS011;42435;53.292;6.000;2023-02-18T15:09:00;21.25;;;5.30;;
56537;SDS011;42435;53.292;6.000;2023-02-18T15:11:37;20.73;;;4.45;;
56537;SDS011;42435;53.292;6.000;2023-02-18T15:14:10;18.25;;;4.45;;
56537;SDS011;42435;53.292;6.000;2023-02-18T15:16:42;21.67;;;4.90;;
56537;SDS011;42435;53.292;6.000;2023-02-18T15:19:13;20.95;;;5.65;;
56537;SDS011;42435;53.292;6.000;2023-02-18T15:21:45;16.48;;;4.43;;
56537;SDS011;42435;53.292;6.000;2023-02-18T15:24:25;24.30;;;5.50;;
56537;SDS011;42435;53.292;6.000;2023-02-18T15:27:12;19.92;;;4.68;;
56537;SDS011;42435;53.292;6.000;2023-02-18T15:29:41;21.58;;;4.50;;
56537;SDS011;42435;53.292;6.000;2023-02-18T15:32:21;22.67;;;6.25;;
56537;SDS011;42435;53.292;6.000;2023-02-18T15:34:52;21.40;;;4.05;;
56537;SDS011;42435;53.292;6.000;2023-02-18T15:37:26;20.45;;;4.28;;
56537;SDS011;42435;53.292;6.000;2023-02-18T15:39:52;19.27;;;5.28;;
56537;SDS011;42435;53.292;6.000;2023-02-18T15:42:36;18.13;;;3.83;;
56537;SDS011;42435;53.292;6.000;2023-02-18T15:45:03;18.98;;;4.35;;
56537;SDS011;42435;53.292;6.000;2023-02-18T15:47:30;34.15;;;4.25;;
56537;SDS011;42435;53.292;6.000;2023-02-18T15:49:57;22.05;;;4.60;;
56537;SDS011;42435;53.292;6.000;2023-02-18T15:52:26;18.63;;;4.70;;
56537;SDS011;42435;53.292;6.000;2023-02-18T15:54:55;23.30;;;5.10;;
56537;SDS011;42435;53.292;6.000;2023-02-18T15:57:27;20.63;;;5.78;;
56537;SDS011;42435;53.292;6.000;2023-02-18T16:00:05;30.80;;;5.57;;
56537;SDS011;42435;53.292;6.000;2023-02-18T16:02:49;26.42;;;5.88;;
56537;SDS011;42435;53.292;6.000;2023-02-18T16:05:17;23.35;;;4.15;;
56537;SDS011;42435;53.292;6.000;2023-02-18T16:07:57;23.65;;;5.60;;
56537;SDS011;42435;53.292;6.000;2023-02-18T16:13:00;18.10;;;4.70;;
56537;SDS011;42435;53.292;6.000;2023-02-18T16:15:30;19.20;;;4.95;;
56537;SDS011;42435;53.292;6.000;2023-02-18T16:18:01;17.93;;;3.80;;
56537;SDS011;42435;53.292;6.000;2023-02-18T16:20:33;19.73;;;4.43;;
56537;SDS011;42435;53.292;6.000;2023-02-18T16:23:11;25.58;;;4.78;;
56537;SDS011;42435;53.292;6.000;2023-02-18T16:25:42;20.55;;;5.05;;
56537;SDS011;42435;53.292;6.000;2023-02-18T16:28:12;21.42;;;4.45;;
56537;SDS011;42435;53.292;6.000;2023-02-18T16:30:47;21.88;;;4.20;;
56537;SDS011;42435;53.292;6.000;2023-02-18T16:33:13;21.48;;;3.97;;
56537;SDS011;42435;53.292;6.000;2023-02-18T16:35:38;17.90;;;4.20;;
56537;SDS011;42435;53.292;6.000;2023-02-18T16:38:05;20.88;;;4.30;;
56537;SDS011;42435;53.292;6.000;2023-02-18T16:42:58;18.45;;;5.55;;
56537;SDS011;42435;53.292;6.000;2023-02-18T16:45:37;21.17;;;5.07;;
56537;SDS011;42435;53.292;6.000;2023-02-18T16:48:05;20.15;;;6.88;;
56537;SDS011;42435;53.292;6.000;2023-02-18T16:50:52;26.08;;;4.97;;
56537;SDS011;42435;53.292;6.000;2023-02-18T16:53:18;18.20;;;4.35;;
56537;SDS011;42435;53.292;6.000;2023-02-18T16:55:44;19.63;;;3.85;;
56537;SDS011;42435;53.292;6.000;2023-02-18T16:58:10;23.17;;;5.43;;
56537;SDS011;42435;53.292;6.000;2023-02-18T17:00:36;20.08;;;4.10;;
56537;SDS011;42435;53.292;6.000;2023-02-18T17:03:02;21.15;;;4.03;;
56537;SDS011;42435;53.292;6.000;2023-02-18T17:05:31;19.67;;;4.00;;
56537;SDS011;42435;53.292;6.000;2023-02-18T17:08:14;26.98;;;4.78;;
56537;SDS011;42435;53.292;6.000;2023-02-18T17:10:48;14.50;;;4.65;;
56537;SDS011;42435;53.292;6.000;2023-02-18T17:13:16;20.55;;;4.65;;
56537;SDS011;42435;53.292;6.000;2023-02-18T17:15:43;24.70;;;5.28;;
56537;SDS011;42435;53.292;6.000;2023-02-18T17:18:09;33.58;;;5.45;;
56537;SDS011;42435;53.292;6.000;2023-02-18T17:20:35;24.00;;;5.28;;
56537;SDS011;42435;53.292;6.000;2023-02-18T17:23:01;18.80;;;4.55;;
56537;SDS011;42435;53.292;6.000;2023-02-18T17:25:31;23.33;;;4.63;;
56537;SDS011;42435;53.292;6.000;2023-02-18T17:28:03;18.35;;;4.47;;
56537;SDS011;42435;53.292;6.000;2023-02-18T17:30:29;21.67;;;4.85;;
56537;SDS011;42435;53.292;6.000;2023-02-18T17:32:59;22.63;;;5.65;;
56537;SDS011;42435;53.292;6.000;2023-02-18T17:35:26;24.33;;;5.20;;
56537;SDS011;42435;53.292;6.000;2023-02-18T17:37:52;20.63;;;4.50;;
56537;SDS011;42435;53.292;6.000;2023-02-18T17:40:24;24.27;;;5.03;;
56537;SDS011;42435;53.292;6.000;2023-02-18T17:42:52;15.30;;;4.50;;
56537;SDS011;42435;53.292;6.000;2023-02-18T17:48:00;32.50;;;5.10;;
56537;SDS011;42435;53.292;6.000;2023-02-18T17:50:27;18.48;;;4.38;;
56537;SDS011;42435;53.292;6.000;2023-02-18T17:52:54;22.20;;;4.82;;
56537;SDS011;42435;53.292;6.000;2023-02-18T17:55:21;25.15;;;5.00;;
56537;SDS011;42435;53.292;6.000;2023-02-18T17:57:49;20.33;;;4.38;;
56537;SDS011;42435;53.292;6.000;2023-02-18T18:00:17;20.10;;;4.50;;
56537;SDS011;42435;53.292;6.000;2023-02-18T18:02:51;20.20;;;5.07;;
56537;SDS011;42435;53.292;6.000;2023-02-18T18:05:25;25.98;;;5.40;;
56537;SDS011;42435;53.292;6.000;2023-02-18T18:07:52;23.73;;;5.22;;
56537;SDS011;42435;53.292;6.000;2023-02-18T18:10:20;24.63;;;5.95;;
56537;SDS011;42435;53.292;6.000;2023-02-18T18:12:49;28.83;;;5.55;;
56537;SDS011;42435;53.292;6.000;2023-02-18T18:15:29;26.23;;;4.80;;
56537;SDS011;42435;53.292;6.000;2023-02-18T18:18:02;23.15;;;5.47;;
56537;SDS011;42435;53.292;6.000;2023-02-18T18:20:29;26.48;;;5.35;;
56537;SDS011;42435;53.292;6.000;2023-02-18T18:22:56;25.70;;;5.82;;
56537;SDS011;42435;53.292;6.000;2023-02-18T18:25:24;30.35;;;5.25;;
56537;SDS011;42435;53.292;6.000;2023-02-18T18:27:56;18.88;;;4.75;;
56537;SDS011;42435;53.292;6.000;2023-02-18T18:30:22;25.27;;;5.85;;
56537;SDS011;42435;53.292;6.000;2023-02-18T18:32:50;28.00;;;5.90;;
56537;SDS011;42435;53.292;6.000;2023-02-18T18:37:49;26.60;;;5.90;;
56537;SDS011;42435;53.292;6.000;2023-02-18T18:40:16;23.40;;;5.25;;
56537;SDS011;42435;53.292;6.000;2023-02-18T18:42:42;26.90;;;5.25;;
56537;SDS011;42435;53.292;6.000;2023-02-18T18:45:14;24.83;;;6.13;;
56537;SDS011;42435;53.292;6.000;2023-02-18T18:47:45;22.08;;;5.63;;
56537;SDS011;42435;53.292;6.000;2023-02-18T18:50:11;25.08;;;5.93;;
56537;SDS011;42435;53.292;6.000;2023-02-18T18:52:37;31.65;;;8.77;;
56537;SDS011;42435;53.292;6.000;2023-02-18T18:55:11;23.17;;;6.30;;
56537;SDS011;42435;53.292;6.000;2023-02-18T18:57:42;23.73;;;6.28;;
56537;SDS011;42435;53.292;6.000;2023-02-18T19:00:07;33.10;;;6.82;;
56537;SDS011;42435;53.292;6.000;2023-02-18T19:02:34;25.67;;;6.72;;
56537;SDS011;42435;53.292;6.000;2023-02-18T19:05:00;26.88;;;6.95;;
56537;SDS011;42435;53.292;6.000;2023-02-18T19:07:28;33.05;;;6.13;;
56537;SDS011;42435;53.292;6.000;2023-02-18T19:09:54;31.20;;;5.05;;
56537;SDS011;42435;53.292;6.000;2023-02-18T19:12:21;23.00;;;6.25;;
56537;SDS011;42435;53.292;6.000;2023-02-18T19:14:47;27.85;;;6.45;;
56537;SDS011;42435;53.292;6.000;2023-02-18T19:17:13;18.88;;;4.70;;
56537;SDS011;42435;53.292;6.000;2023-02-18T19:19:38;23.98;;;5.68;;
56537;SDS011;42435;53.292;6.000;2023-02-18T19:22:04;28.63;;;5.43;;
56537;SDS011;42435;53.292;6.000;2023-02-18T19:24:29;27.92;;;6.20;;
56537;SDS011;42435;53.292;6.000;2023-02-18T19:26:56;36.28;;;9.77;;
56537;SDS011;42435;53.292;6.000;2023-02-18T19:29:21;31.52;;;7.47;;
56537;SDS011;42435;53.292;6.000;2023-02-18T19:31:48;22.58;;;7.07;;
56537;SDS011;42435;53.292;6.000;2023-02-18T19:34:14;24.98;;;7.22;;
56537;SDS011;42435;53.292;6.000;2023-02-18T19:36:40;26.55;;;5.63;;
56537;SDS011;42435;53.292;6.000;2023-02-18T19:39:05;28.13;;;6.68;;
56537;SDS011;42435;53.292;6.000;2023-02-18T19:41:31;19.90;;;6.10;;
56537;SDS011;42435;53.292;6.000;2023-02-18T19:43:56;26.55;;;6.22;;
56537;SDS011;42435;53.292;6.000;2023-02-18T19:46:22;25.90;;;6.63;;
56537;SDS011;42435;53.292;6.000;2023-02-18T19:48:48;29.60;;;7.10;;
56537;SDS011;42435;53.292;6.000;2023-02-18T19:51:16;24.13;;;7.30;;
56537;SDS011;42435;53.292;6.000;2023-02-18T19:53:42;27.92;;;6.97;;
56537;SDS011;42435;53.292;6.000;2023-02-18T19:56:08;20.50;;;7.03;;
56537;SDS011;42435;53.292;6.000;2023-02-18T19:58:34;27.13;;;6.40;;
56537;SDS011;42435;53.292;6.000;2023-02-18T20:01:00;23.23;;;6.13;;